createdAt,value
2018-12-19T04:28:29.458Z,62.90
2018-12-19T04:31:24.762Z,62.40
2018-12-19T04:34:13.865Z,62.30
2018-12-19T04:37:03.209Z,62.10
2018-12-19T04:40:05.772Z,62.50
2018-12-19T04:42:59.527Z,62.50
2018-12-19T04:46:01.640Z,62.40
2018-12-19T04:49:03.486Z,62.40
2018-12-19T05:01:44.924Z,62.70
2018-12-19T05:35:01.304Z,63.40
2018-12-19T05:38:07.687Z,63.30
2018-12-19T05:41:17.723Z,63.20
2018-12-19T05:47:22.694Z,63.10
2018-12-19T05:57:15.132Z,63.00
2018-12-19T06:10:06.199Z,61.50
2018-12-19T06:13:20.087Z,61.70
2018-12-19T06:19:18.124Z,62.30
2018-12-19T06:22:07.554Z,61.70
2018-12-19T06:24:59.302Z,62.30
2018-12-19T06:27:51.831Z,62.80
2018-12-19T06:30:41.360Z,62.90
2018-12-19T06:33:33.335Z,62.80
2018-12-19T06:36:24.043Z,62.60
2018-12-19T06:39:18.570Z,64.10
2018-12-19T06:42:09.631Z,64.30
2018-12-19T06:44:58.800Z,64.70
2018-12-19T06:47:49.311Z,64.50
2018-12-19T06:50:38.721Z,64.90
2018-12-19T06:53:30.673Z,65.10
2018-12-19T06:56:22.270Z,64.60
2018-12-19T06:59:13.262Z,65.20
2018-12-19T07:02:21.855Z,66.00
2018-12-19T07:05:14.067Z,66.00
2018-12-19T07:11:28.775Z,65.60
2018-12-19T07:14:20.555Z,66.20
2018-12-19T07:17:16.079Z,66.30
2018-12-19T07:20:05.846Z,66.80
2018-12-19T07:23:06.769Z,67.10
2018-12-19T07:25:57.218Z,66.60
2018-12-19T07:28:58.856Z,67.30
2018-12-19T07:31:51.877Z,67.90
2018-12-19T07:38:01.649Z,67.80
2018-12-19T07:41:02.140Z,68.10
2018-12-19T07:43:54.031Z,68.00
2018-12-19T07:46:50.309Z,68.00
2018-12-19T07:49:41.335Z,68.00
2018-12-19T07:52:34.705Z,67.80
2018-12-19T08:08:43.473Z,69.40
2018-12-19T08:25:29.500Z,68.90
2018-12-19T08:31:10.739Z,69.10
2018-12-19T08:33:59.337Z,69.20
2018-12-19T08:36:58.033Z,69.40
2018-12-19T08:39:50.009Z,68.70
2018-12-19T08:52:27.642Z,69.60
2018-12-19T08:55:19.174Z,69.60
2018-12-19T09:01:38.586Z,69.60
2018-12-19T09:17:38.302Z,69.90
2018-12-19T09:20:37.688Z,70.20
2018-12-19T09:23:26.035Z,70.30
2018-12-19T09:26:15.968Z,69.90
2018-12-19T09:29:07.181Z,69.60
2018-12-19T09:32:08.352Z,70.40
2018-12-19T09:38:30.712Z,68.60
2018-12-19T09:41:28.309Z,67.70
2018-12-19T09:54:14.438Z,63.90
2018-12-19T09:57:11.814Z,63.80
2018-12-19T10:00:44.272Z,63.10
2018-12-19T10:03:33.126Z,62.90
2018-12-19T10:06:23.189Z,62.10
2018-12-19T10:09:17.447Z,61.10
2018-12-19T10:12:08.227Z,62.10
2018-12-19T10:14:57.592Z,62.90
2018-12-19T10:17:49.920Z,63.40
2018-12-19T10:20:39.595Z,63.90
2018-12-19T10:23:29.583Z,64.00
2018-12-19T10:26:19.657Z,64.30
2018-12-19T10:29:09.175Z,64.80
2018-12-19T10:31:59.103Z,65.20
2018-12-19T10:34:51.768Z,65.40
2018-12-19T10:37:41.280Z,65.60
2018-12-19T10:40:29.736Z,65.60
2018-12-19T10:43:20.856Z,65.50
2018-12-19T10:46:11.602Z,64.90
2018-12-19T11:03:04.375Z,63.50
2018-12-19T11:08:55.769Z,64.00
2018-12-19T11:12:10.074Z,64.20
2018-12-19T11:15:02.963Z,64.50
2018-12-19T11:17:55.657Z,64.70
2018-12-19T11:20:52.079Z,64.90
2018-12-19T11:24:02.111Z,65.10
2018-12-19T11:30:04.865Z,65.50
2018-12-19T11:32:59.451Z,65.60
2018-12-19T11:35:53.791Z,65.80
2018-12-19T11:45:22.274Z,65.00
2018-12-19T12:01:30.791Z,62.30
2018-12-19T12:04:24.637Z,61.60
2018-12-19T12:10:25.497Z,61.90
2018-12-19T12:13:18.427Z,61.80
2018-12-19T12:16:16.961Z,61.90
2018-12-19T12:19:06.376Z,61.90
2018-12-19T12:22:01.053Z,61.90
2018-12-19T12:24:52.297Z,62.10
2018-12-19T12:27:48.129Z,62.00
2018-12-19T12:30:46.728Z,62.00
2018-12-19T12:36:57.847Z,61.90
2018-12-19T12:42:55.596Z,61.30
2018-12-19T12:45:44.527Z,62.70
2018-12-19T12:48:33.992Z,62.90
2018-12-19T12:51:27.468Z,63.50
2018-12-19T12:54:27.406Z,64.90
2018-12-19T13:00:31.908Z,65.70
2018-12-19T13:03:33.049Z,65.70
2018-12-19T13:06:34.973Z,65.30
2018-12-19T13:09:33.154Z,65.30
